Time;durP1;ratioP1;P1;durP2;ratioP2;P2;SDS_P1;SDS_P2;PMS_P1;PMS_P2;Temp;Humidity;BMP_temperature;BMP_pressure;BME280_temperature;BME280_humidity;BME280_pressure;Samples;Min_cycle;Max_cycle;Signal;HPM_P1;HPM_P2
2022/10/25 00:01:30;;;;;;;23.27;10.07;;;;;;;14.69;62.48;95099.25;4190622;28;20081;-53
2022/10/25 00:03:32;;;;;;;26.73;10.93;;;;;;;14.67;62.42;95101.25;4180346;28;20048;-56
2022/10/25 00:05:34;;;;;;;18.65;9.95;;;;;;;14.68;62.61;95105.53;4181478;28;20480;-55
2022/10/25 00:07:35;;;;;;;24.60;9.85;;;;;;;14.68;62.06;95106.34;4194526;28;20095;-54
2022/10/25 00:09:37;;;;;;;28.75;10.73;;;;;;;14.67;62.00;95107.34;4197035;28;20107;-59
2022/10/25 00:11:39;;;;;;;25.05;10.05;;;;;;;14.67;62.03;95098.59;4188080;28;20045;-60
2022/10/25 00:13:41;;;;;;;20.73;9.88;;;;;;;14.64;62.05;95101.59;4180341;28;20091;-57
2022/10/25 00:15:42;;;;;;;24.90;9.73;;;;;;;14.61;61.94;95104.59;4191269;28;20055;-57
2022/10/25 00:17:44;;;;;;;16.63;9.18;;;;;;;14.59;62.61;95102.13;4183479;28;20045;-58
2022/10/25 00:19:46;;;;;;;27.67;10.95;;;;;;;14.59;62.73;95101.31;4195338;28;20051;-58
2022/10/25 00:21:48;;;;;;;22.33;9.80;;;;;;;14.52;62.48;95104.59;4196222;28;20060;-58
2022/10/25 00:23:50;;;;;;;19.20;9.32;;;;;;;14.53;62.97;95111.50;4192715;28;20052;-57
2022/10/25 00:26:00;;;;;;;30.48;10.30;;;;;;;14.54;62.71;95115.00;4179998;28;20044;-56
2022/10/25 00:28:02;;;;;;;24.40;9.27;;;;;;;14.51;62.73;95116.13;4190794;28;20086;-57
2022/10/25 00:30:05;;;;;;;25.77;10.48;;;;;;;14.42;63.00;95108.44;4194962;28;20537;-54
2022/10/25 00:32:07;;;;;;;20.02;9.43;;;;;;;14.32;63.24;95114.72;4194788;28;20100;-57
2022/10/25 00:34:09;;;;;;;23.42;9.73;;;;;;;14.18;63.84;95114.66;4196491;28;20058;-57
2022/10/25 00:36:19;;;;;;;26.27;10.45;;;;;;;14.03;64.22;95115.38;4196162;28;20528;-56
2022/10/25 00:38:20;;;;;;;24.88;9.35;;;;;;;13.89;64.48;95108.16;4195294;28;20087;-58
2022/10/25 00:40:22;;;;;;;27.67;10.95;;;;;;;13.86;64.69;95106.69;4195743;28;20087;-58
2022/10/25 00:42:26;;;;;;;26.55;9.80;;;;;;;13.88;64.55;95109.97;4192461;28;20048;-56
2022/10/25 00:44:39;;;;;;;28.02;10.55;;;;;;;13.96;64.47;95101.25;4190852;28;20140;-57
2022/10/25 00:46:42;;;;;;;23.77;9.45;;;;;;;14.02;64.42;95097.91;4193234;28;20105;-57
2022/10/25 00:49:00;;;;;;;25.90;10.90;;;;;;;14.07;64.29;95092.16;4187245;28;20083;-58
2022/10/25 00:51:02;;;;;;;22.90;10.35;;;;;;;14.07;64.44;95086.88;4194795;28;20273;-55
2022/10/25 00:53:09;;;;;;;27.42;11.60;;;;;;;14.07;64.23;95092.16;4194025;28;20076;-57
2022/10/25 00:55:11;;;;;;;23.88;10.55;;;;;;;14.07;64.50;95087.69;4195780;28;20452;-55
2022/10/25 00:57:40;;;;;;;23.55;10.52;;;;;;;14.04;64.82;95095.09;4194994;28;20507;-57
2022/10/25 00:59:43;;;;;;;23.90;10.57;;;;;;;14.01;64.88;95090.19;4179042;28;20056;-55
2022/10/25 01:01:45;;;;;;;27.63;9.93;;;;;;;14.00;64.77;95093.81;4187927;28;20052;-59
2022/10/25 01:03:48;;;;;;;28.98;10.13;;;;;;;13.98;64.85;95087.88;4178463;28;20599;-57
2022/10/25 01:05:50;;;;;;;23.60;10.30;;;;;;;13.97;64.73;95087.06;4183347;28;20496;-57
2022/10/25 01:07:52;;;;;;;25.33;11.38;;;;;;;13.97;64.91;95092.34;4184029;28;20040;-56
2022/10/25 01:09:54;;;;;;;21.70;10.00;;;;;;;14.01;64.81;95082.28;4188602;28;20059;-58
2022/10/25 01:11:56;;;;;;;22.88;9.85;;;;;;;14.02;64.18;95081.28;4178028;28;20057;-58
2022/10/25 01:13:58;;;;;;;23.98;10.20;;;;;;;13.97;64.33;95080.97;4192103;28;20051;-57
2022/10/25 01:16:14;;;;;;;25.13;9.73;;;;;;;13.98;64.25;95090.50;4193299;28;20529;-58
2022/10/25 01:18:21;;;;;;;27.48;10.68;;;;;;;14.02;64.53;95079.47;4189528;28;20052;-58
2022/10/25 01:20:55;;;;;;;18.63;9.60;;;;;;;14.06;64.27;95090.50;4183262;28;20142;-58
2022/10/25 01:23:27;;;;;;;23.95;9.88;;;;;;;14.02;64.13;95084.72;4192682;28;20087;-59
2022/10/25 01:25:53;;;;;;;26.48;10.02;;;;;;;13.99;64.53;95089.53;4177420;28;20204;-61
2022/10/25 01:28:04;;;;;;;19.90;9.98;;;;;;;13.97;64.63;95086.25;4176459;28;20071;-56
2022/10/25 01:30:24;;;;;;;19.55;9.65;;;;;;;13.97;64.39;95080.97;4174746;28;20061;-55
2022/10/25 01:32:38;;;;;;;23.63;9.68;;;;;;;13.93;64.00;95080.50;4138739;28;20056;-58
2022/10/25 01:34:52;;;;;;;28.02;10.40;;;;;;;13.91;64.42;95083.28;4169057;28;20438;-58
2022/10/25 01:36:56;;;;;;;;;;;;;;;13.95;64.43;95082.97;4191482;28;20856;-60
2022/10/25 01:39:22;;;;;;;26.65;10.45;;;;;;;13.93;64.54;95075.22;4173360;28;20004;-61
2022/10/25 01:41:31;;;;;;;22.67;10.32;;;;;;;13.86;64.71;95077.72;4159623;28;20036;-62
2022/10/25 01:43:41;;;;;;;24.42;9.90;;;;;;;13.85;64.91;95075.25;4170134;28;20073;-63
2022/10/25 01:45:51;;;;;;;29.25;10.35;;;;;;;13.83;64.85;95075.44;4171662;28;20049;-63
2022/10/25 01:48:02;;;;;;;23.55;10.20;;;;;;;13.80;64.86;95072.31;4193709;28;20155;-62
2022/10/25 01:50:07;;;;;;;16.05;8.85;;;;;;;13.80;64.58;95067.03;4177294;28;20045;-64
2022/10/25 01:52:09;;;;;;;23.77;9.75;;;;;;;13.78;64.17;95061.13;4168750;28;20104;-63
2022/10/25 01:54:23;;;;;;;23.33;10.48;;;;;;;13.79;64.68;95068.88;4173889;28;20087;-63
2022/10/25 01:56:39;;;;;;;25.38;10.07;;;;;;;13.80;64.68;95065.22;4166305;28;20057;-64
2022/10/25 01:58:59;;;;;;;25.55;10.75;;;;;;;13.79;64.53;95062.75;4176584;28;20081;-62
2022/10/25 02:01:24;;;;;;;22.27;10.23;;;;;;;13.76;64.84;95057.84;4176198;28;20128;-61
2022/10/25 02:03:41;;;;;;;21.08;9.40;;;;;;;13.79;64.75;95060.97;4189972;28;20061;-62
2022/10/25 02:05:46;;;;;;;25.98;9.65;;;;;;;13.85;64.86;95067.34;4176885;28;20057;-62
2022/10/25 02:08:03;;;;;;;23.23;9.20;;;;;;;13.80;64.84;95064.41;4173526;28;20137;-63
2022/10/25 02:10:16;;;;;;;28.25;10.35;;;;;;;13.67;65.24;95067.59;4175312;28;20505;-62
2022/10/25 02:12:24;;;;;;;22.70;10.00;;;;;;;13.58;65.41;95068.59;4164547;28;20045;-64
2022/10/25 02:14:37;;;;;;;20.38;9.25;;;;;;;13.51;65.65;95068.44;4176960;28;20040;-62
2022/10/25 02:16:43;;;;;;;25.42;10.13;;;;;;;13.50;65.88;95062.34;4169157;28;20056;-63
2022/10/25 02:18:48;;;;;;;25.02;9.75;;;;;;;13.54;65.22;95068.09;4175480;28;20060;-62
2022/10/25 02:20:51;;;;;;;25.45;9.25;;;;;;;13.58;65.12;95068.59;4178121;28;20056;-63
2022/10/25 02:22:53;;;;;;;19.43;9.90;;;;;;;13.60;65.43;95066.63;4168151;28;20045;-59
2022/10/25 02:24:56;;;;;;;24.25;10.40;;;;;;;13.58;65.17;95058.06;4175324;28;20312;-56
2022/10/25 02:26:59;;;;;;;27.50;9.67;;;;;;;13.63;64.95;95063.63;4176114;28;20124;-57
2022/10/25 02:29:02;;;;;;;22.73;9.18;;;;;;;13.64;64.69;95067.94;4176557;28;20063;-57
2022/10/25 02:31:16;;;;;;;25.02;9.65;;;;;;;13.67;64.79;95055.22;4170808;28;20470;-57
2022/10/25 02:33:18;;;;;;;24.05;9.38;;;;;;;13.64;64.62;95066.13;4166829;28;20133;-58
2022/10/25 02:35:19;;;;;;;22.13;9.18;;;;;;;13.63;64.83;95055.75;4173942;28;20088;-55
2022/10/25 02:37:21;;;;;;;21.50;9.20;;;;;;;13.63;64.96;95059.19;4177733;28;20052;-57
2022/10/25 02:39:25;;;;;;;25.67;9.50;;;;;;;13.63;64.47;95061.81;4178106;28;20056;-58
2022/10/25 02:41:32;;;;;;;22.85;9.07;;;;;;;13.64;64.55;95062.66;4169260;28;20116;-58
2022/10/25 02:43:34;;;;;;;25.50;9.35;;;;;;;13.63;64.90;95055.75;4161951;28;20056;-59
2022/10/25 02:45:36;;;;;;;20.13;9.13;;;;;;;13.58;65.08;95060.69;4160613;28;20129;-58
2022/10/25 02:47:37;;;;;;;22.05;9.30;;;;;;;13.53;65.46;95063.84;4176681;28;20499;-58
2022/10/25 02:49:39;;;;;;;24.58;8.95;;;;;;;13.35;65.78;95056.13;4172721;28;20100;-56
2022/10/25 02:51:40;;;;;;;17.92;8.85;;;;;;;13.22;66.30;95056.59;4170356;28;20053;-59
2022/10/25 02:53:42;;;;;;;18.95;10.30;;;;;;;13.19;65.90;95053.50;4178462;28;20521;-57
2022/10/25 02:55:44;;;;;;;19.75;8.68;;;;;;;13.21;66.31;95049.72;4180773;28;20045;-58
2022/10/25 02:57:46;;;;;;;19.88;9.05;;;;;;;13.25;66.36;95061.56;4181391;28;20049;-58
2022/10/25 02:59:48;;;;;;;22.73;10.73;;;;;;;13.26;66.03;95057.09;4180724;28;20049;-57
2022/10/25 03:01:49;;;;;;;41.78;19.23;;;;;;;13.26;66.15;95057.94;4178388;28;20732;-56
2022/10/25 03:03:51;;;;;;;31.58;14.15;;;;;;;13.30;65.76;95056.63;4181066;28;20047;-58
2022/10/25 03:05:53;;;;;;;23.23;9.45;;;;;;;13.22;65.71;95051.34;4181252;28;20053;-59
2022/10/25 03:07:55;;;;;;;18.58;10.18;;;;;;;13.20;66.16;95049.88;4177666;28;20053;-56
2022/10/25 03:09:56;;;;;;;24.98;10.55;;;;;;;13.04;66.77;95059.44;4166973;28;20058;-57
2022/10/25 03:11:58;;;;;;;22.33;9.93;;;;;;;12.99;66.95;95050.38;4164088;28;20046;-57
2022/10/25 03:14:00;;;;;;;25.30;10.35;;;;;;;12.98;66.52;95046.94;4172241;28;20056;-59
2022/10/25 03:16:02;;;;;;;24.65;10.90;;;;;;;12.97;66.57;95040.06;4178898;28;20677;-59
2022/10/25 03:18:04;;;;;;;24.08;9.38;;;;;;;12.84;66.85;95048.44;4178351;28;20067;-60
2022/10/25 03:20:06;;;;;;;20.02;9.13;;;;;;;12.60;68.05;95053.66;4180326;28;20055;-58
2022/10/25 03:22:08;;;;;;;26.67;10.15;;;;;;;12.46;68.43;95052.50;4168683;28;20130;-56
2022/10/25 03:24:09;;;;;;;29.65;10.65;;;;;;;12.39;68.89;95054.13;4173124;28;20132;-57
2022/10/25 03:26:11;;;;;;;26.25;10.43;;;;;;;12.44;69.08;95054.47;4175398;28;20493;-58
2022/10/25 03:28:13;;;;;;;21.05;9.88;;;;;;;12.30;69.18;95053.28;4179020;28;20505;-59
2022/10/25 03:30:15;;;;;;;23.75;10.15;;;;;;;12.13;70.13;95057.69;4167950;28;20163;-58
2022/10/25 03:32:16;;;;;;;32.13;10.57;;;;;;;12.17;70.09;95051.09;4179664;28;20584;-54
2022/10/25 03:34:18;;;;;;;27.75;12.27;;;;;;;12.26;70.01;95042.28;4176247;28;20132;-55
2022/10/25 03:36:20;;;;;;;30.98;11.77;;;;;;;12.35;69.37;95055.44;4180227;28;20061;-57
2022/10/25 03:38:22;;;;;;;26.85;11.20;;;;;;;12.45;69.02;95053.47;4176762;28;20489;-56
2022/10/25 03:40:23;;;;;;;22.63;10.48;;;;;;;12.55;68.42;95054.16;4179656;28;20056;-58
2022/10/25 03:42:25;;;;;;;21.63;10.48;;;;;;;12.65;68.09;95054.81;4178018;28;20622;-55
2022/10/25 03:44:27;;;;;;;24.42;9.90;;;;;;;12.71;67.87;95050.69;4179217;28;20049;-58
2022/10/25 03:46:28;;;;;;;24.42;9.90;;;;;;;12.77;67.46;95057.94;4177203;28;20057;-55
2022/10/25 03:48:30;;;;;;;20.63;9.55;;;;;;;12.83;67.22;95052.03;4180744;28;20063;-57
2022/10/25 03:50:32;;;;;;;33.78;11.10;;;;;;;12.86;67.05;95050.88;4178603;28;20053;-57
2022/10/25 03:52:34;;;;;;;27.23;10.18;;;;;;;12.89;66.94;95055.81;4175357;28;20077;-55
2022/10/25 03:54:36;;;;;;;22.77;9.63;;;;;;;12.88;67.12;95048.91;4172617;28;20077;-57
2022/10/25 03:56:37;;;;;;;27.90;10.43;;;;;;;12.90;67.08;95049.56;4179890;28;20135;-57
2022/10/25 03:58:39;;;;;;;22.10;9.68;;;;;;;12.90;67.00;95052.19;4179367;28;20088;-55
2022/10/25 04:00:40;;;;;;;29.15;10.27;;;;;;;12.92;66.81;95039.69;4178260;28;20141;-60
2022/10/25 04:02:42;;;;;;;23.35;10.23;;;;;;;12.95;66.71;95042.03;4179848;28;20403;-58
2022/10/25 04:04:44;;;;;;;26.60;10.30;;;;;;;12.96;66.85;95045.47;4178519;28;20132;-59
2022/10/25 04:06:45;;;;;;;24.45;10.73;;;;;;;12.98;66.35;95043.50;4178365;28;20627;-56
2022/10/25 04:08:47;;;;;;;24.35;11.15;;;;;;;12.97;66.33;95047.94;4176626;28;20081;-57
2022/10/25 04:10:49;;;;;;;24.92;9.73;;;;;;;12.97;66.91;95060.25;4178458;28;20140;-58
2022/10/25 04:12:51;;;;;;;21.05;9.60;;;;;;;12.99;66.84;95045.13;4180149;28;20432;-60
2022/10/25 04:14:55;;;;;;;29.23;9.98;;;;;;;13.01;66.27;95043.16;4165392;28;20524;-58
2022/10/25 04:16:56;;;;;;;19.67;9.57;;;;;;;13.02;66.21;95040.38;4164870;28;20055;-59
2022/10/25 04:18:58;;;;;;;22.75;9.95;;;;;;;13.02;66.22;95050.06;4172642;28;20106;-64
2022/10/25 04:21:00;;;;;;;23.70;8.43;;;;;;;13.03;66.25;95042.00;4170819;28;20056;-62
2022/10/25 04:23:01;;;;;;;20.83;8.98;;;;;;;13.04;66.29;95037.56;4175714;28;20059;-62
2022/10/25 04:25:03;;;;;;;21.58;8.98;;;;;;;13.02;66.17;95043.00;4166947;28;20050;-64
2022/10/25 04:27:05;;;;;;;20.63;9.20;;;;;;;13.00;66.29;95038.88;4174772;28;20045;-65
2022/10/25 04:29:07;;;;;;;26.55;9.90;;;;;;;12.97;66.12;95040.06;4171619;28;20061;-63
2022/10/25 04:31:09;;;;;;;23.80;9.50;;;;;;;12.88;66.51;95041.03;4178820;28;20135;-62
2022/10/25 04:33:10;;;;;;;25.98;10.63;;;;;;;12.73;66.97;95043.47;4166696;28;20055;-65
2022/10/25 04:35:12;;;;;;;20.70;11.05;;;;;;;12.54;67.57;95051.69;4180028;28;20137;-62
2022/10/25 04:37:14;;;;;;;29.95;10.82;;;;;;;12.20;68.78;95044.75;4180265;28;20133;-65
2022/10/25 04:39:15;;;;;;;31.48;11.52;;;;;;;11.97;69.71;95060.25;4180177;28;20051;-64
2022/10/25 04:41:17;;;;;;;29.73;12.88;;;;;;;12.03;69.92;95064.88;4168532;28;20084;-58
2022/10/25 04:43:19;;;;;;;28.70;12.65;;;;;;;12.01;69.79;95057.13;4180201;28;20136;-57
2022/10/25 04:45:21;;;;;;;39.95;13.40;;;;;;;11.94;70.25;95050.91;4177442;28;20059;-58
2022/10/25 04:47:22;;;;;;;32.53;13.32;;;;;;;12.02;69.87;95052.72;4165655;28;20136;-59
2022/10/25 04:49:24;;;;;;;37.65;13.35;;;;;;;12.16;69.54;95049.47;4180131;28;20156;-58
2022/10/25 04:51:26;;;;;;;36.92;12.63;;;;;;;12.24;69.12;95049.50;4178871;28;20041;-57
2022/10/25 04:53:27;;;;;;;32.60;13.18;;;;;;;12.33;68.86;95058.22;4175446;28;20053;-59
2022/10/25 04:55:30;;;;;;;33.15;12.23;;;;;;;12.43;68.74;95051.03;4176635;28;20140;-59
2022/10/25 04:57:32;;;;;;;28.77;12.80;;;;;;;12.48;68.43;95053.97;4163553;28;20144;-57
2022/10/25 04:59:33;;;;;;;30.88;12.40;;;;;;;12.54;68.17;95056.94;4163618;28;20049;-59
2022/10/25 05:01:35;;;;;;;32.22;13.02;;;;;;;12.47;68.20;95059.38;4161674;28;20045;-61
2022/10/25 05:03:37;;;;;;;29.50;13.25;;;;;;;12.37;68.84;95062.19;4162184;28;20129;-59
2022/10/25 05:05:39;;;;;;;37.42;15.52;;;;;;;12.36;69.00;95064.97;4163478;28;20149;-61
2022/10/25 05:07:41;;;;;;;36.85;13.63;;;;;;;12.33;69.07;95065.28;4173831;28;20084;-58
2022/10/25 05:09:42;;;;;;;29.73;14.05;;;;;;;12.30;68.67;95061.16;4167554;28;20076;-61
2022/10/25 05:11:48;;;;;;;38.33;15.07;;;;;;;12.39;68.92;95059.38;4162880;28;20081;-60
2022/10/25 05:13:49;;;;;;;36.83;15.02;;;;;;;12.45;68.47;95056.09;4168008;28;20493;-59
2022/10/25 05:15:55;;;;;;;41.85;13.93;;;;;;;12.52;68.26;95062.38;4178238;28;20132;-58
2022/10/25 05:18:00;;;;;;;42.65;15.07;;;;;;;12.56;68.26;95060.22;4179521;28;20751;-57
2022/10/25 05:20:02;;;;;;;34.45;15.20;;;;;;;12.67;68.01;95063.38;4175208;28;20045;-59
2022/10/25 05:22:03;;;;;;;35.55;14.27;;;;;;;12.81;67.61;95063.72;4163225;28;20061;-58
2022/10/25 05:24:05;;;;;;;32.03;13.93;;;;;;;12.88;67.18;95067.31;4170338;28;20548;-61
2022/10/25 05:26:09;;;;;;;43.35;14.38;;;;;;;12.91;66.73;95062.56;4178939;28;20076;-58
2022/10/25 05:28:11;;;;;;;36.22;15.48;;;;;;;12.95;66.70;95078.00;4166172;28;20136;-58
2022/10/25 05:30:13;;;;;;;49.10;14.82;;;;;;;12.97;66.62;95071.59;4176330;28;20051;-56
2022/10/25 05:32:14;;;;;;;36.00;14.52;;;;;;;13.01;66.39;95075.53;4179536;28;20109;-61
2022/10/25 05:34:16;;;;;;;33.72;16.27;;;;;;;13.04;66.65;95083.09;4166658;28;20045;-59
2022/10/25 05:36:18;;;;;;;53.83;16.50;;;;;;;13.06;66.59;95089.03;4164787;28;20052;-57
2022/10/25 05:38:20;;;;;;;43.05;17.25;;;;;;;13.10;66.29;95098.22;4174013;28;20056;-60
2022/10/25 05:40:21;;;;;;;36.22;15.57;;;;;;;13.09;66.44;95099.19;4162697;28;20057;-58
2022/10/25 05:42:23;;;;;;;39.20;17.38;;;;;;;13.11;66.70;95099.84;4176564;28;20465;-60
2022/10/25 05:44:25;;;;;;;38.70;14.82;;;;;;;13.11;66.36;95101.69;4171770;28;20084;-59
2022/10/25 05:46:26;;;;;;;29.02;14.27;;;;;;;13.19;66.17;95104.31;4177704;28;20088;-58
2022/10/25 05:48:28;;;;;;;51.53;16.35;;;;;;;13.21;66.33;95104.16;4179040;28;20058;-60
2022/10/25 05:50:30;;;;;;;41.72;15.90;;;;;;;13.24;66.09;95111.69;4178819;28;20045;-59
2022/10/25 05:52:31;;;;;;;36.30;15.07;;;;;;;13.33;66.10;95116.00;4179244;28;20060;-62
2022/10/25 05:54:33;;;;;;;30.65;14.15;;;;;;;13.41;65.35;95129.16;4178954;28;20126;-61
2022/10/25 05:56:35;;;;;;;34.28;13.68;;;;;;;13.52;65.24;95125.34;4178630;28;20421;-58
2022/10/25 05:58:37;;;;;;;27.75;13.80;;;;;;;13.60;64.80;95129.81;4177074;28;20136;-56
2022/10/25 06:00:39;;;;;;;31.42;14.23;;;;;;;13.66;64.60;95129.13;4177274;28;20128;-58
2022/10/25 06:02:40;;;;;;;34.35;12.95;;;;;;;13.70;64.55;95127.78;4179219;28;20059;-61
2022/10/25 06:04:42;;;;;;;30.17;13.27;;;;;;;13.76;64.38;95127.13;4166270;28;20128;-60
2022/10/25 06:06:45;;;;;;;40.75;14.60;;;;;;;13.83;63.83;95122.84;4177850;28;20250;-59
2022/10/25 06:08:47;;;;;;;32.10;14.82;;;;;;;13.88;64.29;95123.16;4178997;28;20421;-60
2022/10/25 06:10:49;;;;;;;33.80;14.38;;;;;;;13.96;63.85;95126.75;4174986;28;20132;-63
2022/10/25 06:12:50;;;;;;;41.08;14.68;;;;;;;14.02;63.73;95131.34;4178092;28;20060;-60
2022/10/25 06:14:52;;;;;;;35.38;14.43;;;;;;;14.04;63.67;95132.00;4165600;28;20049;-60
2022/10/25 06:16:54;;;;;;;29.63;13.45;;;;;;;14.11;63.62;95128.50;4173150;28;20091;-59
2022/10/25 06:18:56;;;;;;;34.83;15.60;;;;;;;14.06;63.49;95136.09;4170670;28;20227;-60
2022/10/25 06:21:02;;;;;;;37.65;16.33;;;;;;;14.10;63.76;95134.75;4161147;28;20063;-59
2022/10/25 06:23:04;;;;;;;31.88;15.07;;;;;;;14.14;63.40;95125.53;4172597;28;20057;-58
2022/10/25 06:25:10;;;;;;;34.28;15.88;;;;;;;14.13;63.28;95125.69;4177843;28;20044;-59
2022/10/25 06:27:12;;;;;;;40.88;16.92;;;;;;;14.21;63.59;95128.28;4178680;28;20052;-61
2022/10/25 06:29:14;;;;;;;37.13;16.00;;;;;;;14.28;63.53;95120.53;4164167;28;20049;-62
2022/10/25 06:31:17;;;;;;;36.50;14.77;;;;;;;14.42;63.40;95121.63;4174972;28;20143;-58
2022/10/25 06:33:19;;;;;;;34.33;14.82;;;;;;;14.53;62.91;95116.78;4178696;28;20136;-61
2022/10/25 06:35:23;;;;;;;48.33;15.88;;;;;;;14.66;62.76;95124.16;4177201;28;20087;-60
2022/10/25 06:37:25;;;;;;;36.55;14.98;;;;;;;14.79;62.04;95115.69;4178367;28;20049;-60
2022/10/25 06:39:26;;;;;;;31.05;15.07;;;;;;;14.92;61.62;95123.81;4178078;28;20448;-59
2022/10/25 06:41:30;;;;;;;37.20;15.20;;;;;;;15.03;61.46;95116.50;4178189;28;20084;-58
2022/10/25 06:43:33;;;;;;;33.03;13.85;;;;;;;15.11;61.01;95122.53;4176726;28;20091;-59
2022/10/25 06:45:35;;;;;;;27.15;13.80;;;;;;;15.19;60.58;95128.78;4173849;28;20041;-57
2022/10/25 06:47:37;;;;;;;31.35;14.32;;;;;;;15.15;61.12;95125.66;4177851;28;20549;-59
2022/10/25 06:49:38;;;;;;;35.58;14.68;;;;;;;15.13;60.92;95125.81;4178347;28;20547;-60
2022/10/25 06:51:40;;;;;;;30.73;14.32;;;;;;;15.15;61.16;95123.03;4178049;28;20104;-58
2022/10/25 06:53:41;;;;;;;32.72;15.32;;;;;;;15.24;60.69;95126.41;4176424;28;20049;-60
2022/10/25 06:55:45;;;;;;;34.25;14.50;;;;;;;15.26;60.83;95129.69;4177802;28;20110;-59
2022/10/25 06:57:47;;;;;;;32.55;14.18;;;;;;;15.25;60.72;95122.75;4178554;28;20122;-59
2022/10/25 06:59:49;;;;;;;32.20;14.40;;;;;;;15.24;60.85;95129.88;4178421;28;20075;-60
2022/10/25 07:01:51;;;;;;;31.42;14.35;;;;;;;15.32;60.77;95121.06;4173298;28;20472;-56
2022/10/25 07:03:54;;;;;;;39.05;14.07;;;;;;;15.39;60.72;95119.34;4172497;28;20525;-58
2022/10/25 07:05:59;;;;;;;42.97;17.58;;;;;;;15.36;60.41;95122.38;4169470;28;20049;-61
2022/10/25 07:08:01;;;;;;;37.63;15.65;;;;;;;15.31;60.72;95114.13;4176038;28;20495;-60
2022/10/25 07:10:03;;;;;;;36.05;16.30;;;;;;;15.24;60.95;95119.31;4192265;28;20808;-63
2022/10/25 07:12:05;;;;;;;36.22;17.98;;;;;;;15.35;60.74;95120.72;4168965;28;20050;-57
2022/10/25 07:14:13;;;;;;;39.38;19.30;;;;;;;15.25;61.16;95125.41;4174867;28;20469;-61
2022/10/25 07:16:17;;;;;;;48.47;23.17;;;;;;;15.33;61.08;95127.97;4164638;28;20053;-59
2022/10/25 07:18:18;;;;;;;44.47;20.40;;;;;;;15.03;61.39;95124.41;4165245;28;20049;-60
2022/10/25 07:20:20;;;;;;;41.60;20.27;;;;;;;14.97;61.75;95125.97;4174526;28;20081;-60
2022/10/25 07:22:22;;;;;;;38.35;18.00;;;;;;;15.09;61.74;95110.53;4167853;28;20056;-57
2022/10/25 07:24:23;;;;;;;38.45;19.25;;;;;;;15.30;61.38;95113.31;4178347;28;20078;-59
2022/10/25 07:26:30;;;;;;;39.55;18.83;;;;;;;15.55;60.68;95105.16;4178111;28;20052;-57
2022/10/25 07:28:32;;;;;;;44.15;18.52;;;;;;;15.80;60.07;95103.16;4178050;28;20676;-59
2022/10/25 07:30:34;;;;;;;43.08;18.90;;;;;;;15.98;59.17;95108.06;4176498;28;20128;-59
2022/10/25 07:32:35;;;;;;;35.33;16.77;;;;;;;16.13;58.82;95114.19;4178861;28;20092;-59
2022/10/25 07:34:42;;;;;;;31.27;14.63;;;;;;;16.25;58.32;95116.38;4178550;28;20127;-60
2022/10/25 07:36:44;;;;;;;37.65;14.23;;;;;;;16.40;58.03;95106.59;4169909;28;20114;-60
2022/10/25 07:38:46;;;;;;;32.53;13.88;;;;;;;16.57;57.65;95107.19;4180986;28;20044;-61
2022/10/25 07:40:54;;;;;;;36.53;16.50;;;;;;;16.52;57.27;95109.56;4179482;28;20140;-58
2022/10/25 07:42:55;;;;;;;36.22;16.23;;;;;;;16.52;57.13;95110.41;4170293;28;20139;-60
2022/10/25 07:44:57;;;;;;;38.33;15.80;;;;;;;16.54;57.35;95110.19;4170963;28;20775;-58
2022/10/25 07:46:58;;;;;;;30.48;15.77;;;;;;;16.52;57.34;95105.13;4175587;28;20136;-58
2022/10/25 07:49:00;;;;;;;38.80;18.67;;;;;;;16.55;56.90;95114.50;4180752;28;20275;-57
2022/10/25 07:51:12;;;;;;;35.10;16.98;;;;;;;16.59;57.19;95113.13;4175160;28;20397;-59
2022/10/25 07:53:14;;;;;;;34.30;15.50;;;;;;;16.67;56.54;95114.81;4163852;28;20133;-58
2022/10/25 07:55:16;;;;;;;32.83;16.13;;;;;;;16.77;56.58;95110.88;4164232;28;20053;-60
2022/10/25 07:57:17;;;;;;;41.90;15.93;;;;;;;16.97;56.33;95102.34;4180196;28;20513;-58
2022/10/25 07:59:20;;;;;;;37.75;16.00;;;;;;;17.17;56.14;95091.97;4180599;28;20077;-58
2022/10/25 08:01:24;;;;;;;39.13;18.73;;;;;;;17.37;55.79;95102.72;4178340;28;20087;-59
2022/10/25 08:03:25;;;;;;;37.40;14.85;;;;;;;17.56;55.14;95094.09;4180556;28;20079;-59
2022/10/25 08:05:27;;;;;;;42.10;15.82;;;;;;;17.66;54.09;95100.88;4180602;28;20045;-61
2022/10/25 08:07:29;;;;;;;30.70;15.10;;;;;;;17.80;54.31;95092.03;4180566;28;20049;-60
2022/10/25 08:09:30;;;;;;;42.55;15.27;;;;;;;17.89;53.80;95096.19;4180734;28;20124;-60
2022/10/25 08:11:39;;;;;;;31.70;15.30;;;;;;;17.94;53.33;95100.91;4178534;28;20491;-60
2022/10/25 08:13:41;;;;;;;43.97;14.27;;;;;;;17.55;54.08;95099.59;4165686;28;20126;-59
2022/10/25 08:15:50;;;;;;;41.22;16.10;;;;;;;17.46;54.49;95103.41;4170584;28;20045;-61
2022/10/25 08:18:01;;;;;;;42.30;14.45;;;;;;;17.45;54.68;95092.00;4178387;28;20071;-60
2022/10/25 08:20:03;;;;;;;31.45;15.05;;;;;;;17.52;54.22;95100.78;4168240;28;20435;-61
2022/10/25 08:22:05;;;;;;;35.25;16.15;;;;;;;17.65;54.02;95094.78;4167937;28;20049;-60
2022/10/25 08:24:07;;;;;;;32.90;14.35;;;;;;;17.82;53.54;95092.69;4173335;28;20391;-60
2022/10/25 08:26:09;;;;;;;36.28;12.88;;;;;;;18.03;53.24;95086.50;4174461;28;20080;-58
2022/10/25 08:28:10;;;;;;;32.33;12.85;;;;;;;18.25;52.67;95087.22;4179214;28;20132;-62
2022/10/25 08:30:12;;;;;;;35.25;16.63;;;;;;;18.45;52.26;95084.63;4167315;28;20103;-60
2022/10/25 08:32:14;;;;;;;39.15;18.92;;;;;;;18.53;51.55;95078.34;4180484;28;20123;-58
2022/10/25 08:34:15;;;;;;;37.00;17.42;;;;;;;18.37;51.77;95082.19;4180468;28;20053;-59
2022/10/25 08:36:17;;;;;;;45.75;17.73;;;;;;;18.19;51.82;95082.69;4179844;28;20701;-60
2022/10/25 08:38:19;;;;;;;40.60;16.95;;;;;;;18.36;52.08;95086.63;4175210;28;20084;-60
2022/10/25 08:40:24;;;;;;;37.80;16.02;;;;;;;18.58;51.55;95082.06;4172699;28;20136;-60
2022/10/25 08:42:53;;;;;;;32.33;15.55;;;;;;;18.77;51.19;95077.78;4178935;28;20417;-58
2022/10/25 08:45:09;;;;;;;41.10;15.30;;;;;;;18.92;50.54;95071.53;4179733;28;20048;-61
2022/10/25 08:47:19;;;;;;;36.38;15.00;;;;;;;19.08;50.22;95068.50;4178896;28;20148;-62
2022/10/25 08:49:28;;;;;;;34.92;15.63;;;;;;;18.98;49.63;95066.22;4168916;28;20138;-60
2022/10/25 08:51:35;;;;;;;33.90;14.13;;;;;;;19.06;49.74;95067.03;4178652;28;20143;-59
2022/10/25 08:53:41;;;;;;;31.10;11.65;;;;;;;19.18;49.31;95065.44;4179546;28;20136;-61
2022/10/25 08:55:44;;;;;;;28.40;11.45;;;;;;;19.34;49.04;95050.94;4189267;28;20488;-60
2022/10/25 08:58:12;;;;;;;25.77;11.50;;;;;;;19.54;48.76;95062.38;4174555;28;20092;-59
2022/10/25 09:00:22;;;;;;;27.40;9.77;;;;;;;19.71;48.02;95056.66;4177007;28;20076;-60
2022/10/25 09:02:44;;;;;;;30.85;11.10;;;;;;;19.87;47.26;95060.72;4178499;28;20464;-60
2022/10/25 09:04:46;;;;;;;28.10;10.38;;;;;;;20.00;47.35;95056.19;4176187;28;20131;-62
2022/10/25 09:07:00;;;;;;;35.97;10.75;;;;;;;20.15;46.83;95047.13;4177179;28;20064;-59
2022/10/25 09:09:32;;;;;;;33.05;12.02;;;;;;;20.24;46.63;95040.53;4179839;28;20127;-62
2022/10/25 09:11:43;;;;;;;27.25;9.25;;;;;;;20.36;46.32;95049.50;4178447;28;20153;-60
2022/10/25 09:14:07;;;;;;;30.40;10.95;;;;;;;20.45;46.17;95052.75;4161649;28;20544;-60
2022/10/25 09:16:19;;;;;;;25.20;10.52;;;;;;;20.51;46.14;95041.25;4160854;28;20549;-61
2022/10/25 09:18:35;;;;;;;36.13;10.98;;;;;;;20.61;46.33;95046.97;4166293;28;20049;-62
2022/10/25 09:20:44;;;;;;;30.55;11.60;;;;;;;20.71;45.53;95051.81;4172534;28;20144;-62
2022/10/25 09:22:56;;;;;;;26.83;10.95;;;;;;;20.45;45.68;95050.09;4154853;28;20081;-59
2022/10/25 09:25:19;;;;;;;29.95;11.13;;;;;;;20.16;46.55;95054.09;4162465;28;20068;-61
2022/10/25 09:27:31;;;;;;;29.00;11.20;;;;;;;19.99;46.47;95054.56;4161765;28;20076;-62
2022/10/25 09:30:14;;;;;;;29.33;10.68;;;;;;;19.86;46.95;95054.59;4149666;28;20081;-65
2022/10/25 09:32:28;;;;;;;27.98;12.55;;;;;;;19.95;46.82;95048.00;4147470;28;20514;-65
2022/10/25 09:34:34;;;;;;;26.23;12.40;;;;;;;19.86;46.93;95045.81;4146569;28;20064;-63
2022/10/25 09:36:42;;;;;;;28.63;11.88;;;;;;;19.83;46.98;95042.53;4162393;28;20041;-65